Ride Results

Eidsvold (18-05-2008)
Ride distance: 81.0 km

Outcomes - Eidsvold (18-05-2008)
Division No. of Entries Retired / DNE Completed Withdrawn Ineligible V/O Percentage Completed
HW 21 - 15 2 - 4 71.43%
MW 25 - 19 - - 6 76.00%
LW 22 - 19 2 - 1 86.36%
JN 7 - 5 - 2 - 71.43%
Totals 75 - 58 4 2 11 77.33%
Results - Eidsvold (18-05-2008)
No. Rider Horse Place Time Leg Speeds Total
Km/Hr
H/R bpm
Heavyweight
42 Paul Lengronne Cherox Kariim 1 4:41:00 19.9, 15.1 17.30 35, 40, 42 (Avg:41)
64 David Pembroke Rahim Whispah 2 4:43:00 18.4, 15.9 17.17 27, 40, 48 (Avg:44)
36 Scott Barker Saronet Phantom 3 4:46:00 18.4, 15.6 16.99 30, 40, 46 (Avg:43)
48 Ced Fry Roxborough Paragon 4 4:51:00 16.8, 16.5 16.70 37, 42, 44 (Avg:43)
52 Rod Strahan Shardell Azrark 5 4:56:00 16.1, 16.6 16.42 32, 37, 39 (Avg:38)
15 Alwyn Torenbeek Pardon 6 5:25:00 16.1, 13.8 14.95 32, 48, 47 (Avg:47)
61 Niels Lochtenberg Matta Mia Dollar 7 5:53:00 14.4, 13.1 13.77 37, 44, 48 (Avg:46)
74 Roger Warner Hillbrae Kahalan 8 6:19:00 13.5, 12.1 12.82 38, 44, 49 (Avg:46)
4 Caro de Boer Hirstglen Zambezi 9 6:22:00 13.0, 12.4 12.72 39, 42, 52 (Avg:47)
10 Colleen Shaw Mt Eerwah Shazaam 9 6:22:00 12.8, 12.5 12.72 35, 45, 50 (Avg:47)
9 Michael Shaw Bellabin 9 6:22:00 12.8, 12.5 12.72 40, 45, 45 (Avg:45)
56 Dan Winkel Roheryn Cavalier 12 6:41:00 18.2, 9.0 12.12 41, 40, 45 (Avg:42)
31 Ivan Sampson Hilbrae LC 13 7:38:00 10.8, 10.3 10.61 32, 42, 48 (Avg:45)
45 Louise Mackey Sativa Billy The Kid 14 7:41:00 10.6, 10.3 10.54 37, 39, 48 (Avg:43)
44 Jan McPherson Follydown Bint Ajouz 14 7:41:00 10.6, 10.3 10.54 33, 43, 40 (Avg:41)
50 Gerard Bou Shardell Jarrod Lame L2 0:00:00 13.3, 12.3 - 32, 43, 47 (Avg:45)
54 Janet Anderson Manana Zandy Widthdrawn L1 0:00:00 - - 42, 41 (Avg:41)
51 Edward (ted) Fitzgerald Mt Eerwah Silver Mariner Widthdrawn L1 0:00:00 - - 30, 40 (Avg:40)
78 Barry Genninges Chazar Bandana Heart Rate L1 0:00:00 13.6 - 55, 60 (Avg:60)
1 Barry Thurlow Willow Lame L1 0:00:00 15.4 - 30, 48 (Avg:48)
29 Jonnie White Aloha Fascinator Lame L1 0:00:00 12.7 - 37, 40 (Avg:40)
Middleweight
72 Gayle Holmes Aloha Spartacus 1 4:49:00 16.1, 17.5 16.82 32, 42, 44 (Avg:43)
43 Marion Lengronne Banjo Star 1 4:49:00 16.1, 17.5 16.82 37, 40, 45 (Avg:42)
47 Jayne Fry Rivalyn Shianne 3 4:51:00 16.8, 16.5 16.70 27, 36, 41 (Avg:38)
19 Christopher Fulwood Russian 4 5:51:00 14.3, 13.3 13.85 32, 45, 48 (Avg:46)
18 Libby Nichols Meltharina Moosa 4 5:51:00 14.7, 13.0 13.85 38, 40, 52 (Avg:46)
49 Tarnia Kittel Sahateyn Star Dancer 6 6:04:00 13.4, 13.2 13.35 33, 39, 46 (Avg:42)
40 Kerrie McAuliffe Mistafa 7 6:14:00 13.3, 12.6 12.99 42, 40, 54 (Avg:47)
5 Tanya Zanow Cicada Lodge Oliver Twist 7 6:14:00 13.3, 12.6 12.99 46, 46, 50 (Avg:48)
66 Robyn Pembroke Mt Eerwah Silverado 9 6:15:00 14.3, 11.7 12.96 25, 35, 41 (Avg:38)
53 Prutirat Serireongrith Shardell Galazan 10 6:19:00 13.3, 12.3 12.82 34, 40, 44 (Avg:42)
2 Donna Brooker Hirstglen Horizon 11 6:22:00 13.0, 12.4 12.72 37, 39, 50 (Avg:44)
3 Vanessa Tiffen Hirstglen Mustang Sally 11 6:22:00 13.0, 12.4 12.72 34, 48, 52 (Avg:50)
12 Peter Pike Sundust Jack 13 6:47:00 12.4, 11.4 11.94 30, 40, 49 (Avg:44)
35 Heather Parry Miss Dee Fi 14 6:49:00 12.7, 11.1 11.88 37, 41, 41 (Avg:41)
32 Kay Barbeler Rivalyn Kasman 15 6:51:00 13.3, 10.5 11.82 32, 47, 48 (Avg:47)
37 Angela Head Hadji of Damascus 16 6:53:00 13.0, 10.6 11.77 42, 37, 44 (Avg:40)
63 Viv Butler Sadaqa 17 6:58:00 12.6, 10.7 11.63 37, 46, 52 (Avg:49)
59 Ken Moir Eskdale Shakago Bae 18 7:41:00 10.6, 10.3 10.54 38, 39, 48 (Avg:43)
60 Maree Pearce Tropic Danone 18 7:41:00 10.6, 10.3 10.54 34, 42, 40 (Avg:41)
75 Billie Barron Shardell Sharana Golden Heart Rate L2 0:00:00 19.9, 15.1 - 28, 42, 73 (Avg:57)
11 Julie Kemp Kahlila Heart Rate L2 0:00:00 12.4, 11.4 - 39, 46, 62 (Avg:54)
69 Janelle Taylor Kenley Marie Lame L2 0:00:00 11.9, 9.6 - 35, 48, 58 (Avg:53)
20 Raelene Berry Sarenka Bint Ibaham Lame L1 0:00:00 11.7 - 39, 40 (Avg:40)
28 Fiona Fenech Monty Lame L1 0:00:00 13.4 - 32, 42 (Avg:42)
34 Albie Knight Manana Gaylord Lame L1 0:00:00 17.9 - 34, 48 (Avg:48)
Lightweight
24 Bec Miller Jayhal Cloud 1 (BC) 3:59:00 19.9, 20.6 20.33 33, 49, 49 (Avg:49)
17 Amaya Thomas Kilkivan Msalute 1 3:59:00 17.9, 23.5 20.33 35, 46, 52 (Avg:49)
73 Tylana Woodward Tallow Wood Sa Hassan 3 4:41:00 19.9, 15.1 17.30 30, 46, 59 (Avg:52)
41 Sue Sutcliffe Talbarear Rapier 4 4:42:00 18.4, 16.1 17.23 38, 42, 47 (Avg:44)
7 Jocelyn Barnes Sahala Afrikhaan 5 4:44:00 16.1, 18.1 17.11 50, 44, 46 (Avg:45)
33 Yvonne Knight Alhambra Troubador 5 4:44:00 18.4, 15.8 17.11 30, 40, 53 (Avg:46)
67 Hayley Murphy Apollo 5 4:44:00 18.4, 15.8 17.11 39, 42, 45 (Avg:43)
16 Bridget Campbell Cameo Kinshaza 8 5:25:00 16.3, 13.7 14.95 40, 43, 44 (Avg:43)
77 Sally Genninges Arinya Park Nazzerin 9 5:39:00 13.6, 15.0 14.34 36, 40, 40 (Avg:40)
65 Carla Jones Mt Eerwah Anastazia 10 6:15:00 14.3, 11.7 12.96 32, 40, 45 (Avg:42)
27 Jarmila Lakeman Lenny 11 6:28:00 11.9, 13.1 12.53 52, 44, 50 (Avg:47)
46 Evelyn Cornell Sa'eed 12 6:29:00 13.2, 11.8 12.49 33, 40, 45 (Avg:42)
57 Karen Hill Safira Myth 12 6:29:00 13.2, 11.8 12.49 38, 48, 42 (Avg:45)
55 Karen Winkel Xanadu Barabbous 14 6:41:00 12.6, 11.6 12.12 52, 40, 46 (Avg:43)
23 Anne Jones Carnarvon Cavalier 15 6:42:00 12.6, 11.5 12.09 28, 33, 41 (Avg:37)
38 Nicole Barker Mystical Cynika 16 6:53:00 13.0, 10.6 11.77 37, 54, 38 (Avg:46)
62 Bobbi Lochtenberg Matta Mia Dayman 17 6:58:00 12.6, 10.7 11.63 36, 48, 44 (Avg:46)
39 Karen Mendoza Allyndah Expectation 18 7:35:00 13.5, 8.7 10.68 27, 40, 46 (Avg:43)
30 Julie Fletcher Glendinning Countess 19 7:38:00 10.8, 10.3 10.61 35, 44, 47 (Avg:45)
13 Lisa Burgess Eljannah Wafa Widthdrawn L1 0:00:00 - - 29, 35 (Avg:35)
21 Angela Hawks Edenfels Aussie Widthdrawn L1 0:00:00 - - 39, 40 (Avg:40)
58 Lisa Sanchez Adeliane My Girl Lame L1 0:00:00 12.6 - 29, 42 (Avg:42)
Junior
70 Ingrid Ambrosiussen Shanti 1 (BC) 4:49:00 16.1, 17.5 16.82 36, 38, 49 (Avg:43)
6 Sharn Brooker Hirstglen Maybe 2 6:22:00 13.0, 12.4 12.72 33, 40, 45 (Avg:42)
26 Jamie Green Allira Park Wings Of Fire 3 6:29:00 11.9, 13.0 12.49 33, 36, 44 (Avg:40)
25 Tasha Jeremy Tamar 3 6:29:00 11.9, 13.0 12.49 42, 40, 43 (Avg:41)
22 Jade Vergis Meltharina Maralyc 5 6:42:00 12.6, 11.5 12.09 39, 42, 52 (Avg:47)
76 David Anderson Jnr Tobinlee Ishmale Out of Time L2 0:00:00 19.9, 10.5 - 34, 40, 50 (Avg:45)
14 Luke Torenbeek Belyando Under Novice Time L2
(On Course 2:59:00)
0:00:00 13.4, 13.4 - 45, 48, 47 (Avg:47)